Time;durP1;ratioP1;P1;durP2;ratioP2;P2;SDS_P1;SDS_P2;PMS_P1;PMS_P2;Temp;Humidity;BMP_temperature;BMP_pressure;BME280_temperature;BME280_humidity;BME280_pressure;Samples;Min_cycle;Max_cycle;Signal;HPM_P1;HPM_P2
2021/11/14 00:01:33;;;;;;;15.83;12.07;;;;;;;5.89;82.52;99686.03;5086501;28;20264;-82
2021/11/14 00:04:01;;;;;;;15.33;11.73;;;;;;;5.87;82.40;99688.06;5083009;28;20229;-81
2021/11/14 00:06:29;;;;;;;15.97;11.83;;;;;;;5.83;83.44;99689.44;5069392;28;20252;-82
2021/11/14 00:08:57;;;;;;;16.83;12.20;;;;;;;5.83;82.68;99687.59;5068922;28;20227;-81
2021/11/14 00:11:24;;;;;;;13.67;11.37;;;;;;;5.80;83.38;99679.97;5083976;28;20311;-81
2021/11/14 00:13:52;;;;;;;18.03;12.43;;;;;;;5.77;83.11;99680.38;5084958;28;20232;-82
2021/11/14 00:16:22;;;;;;;15.97;12.17;;;;;;;5.84;83.32;99693.72;5082294;28;20241;-82
2021/11/14 00:18:50;;;;;;;16.17;12.33;;;;;;;5.85;83.22;99690.88;5067986;28;20242;-83
2021/11/14 00:21:20;;;;;;;15.63;11.90;;;;;;;5.78;83.16;99677.50;5067996;28;20241;-81
2021/11/14 00:23:48;;;;;;;14.93;11.77;;;;;;;5.74;83.11;99672.75;5066263;28;20228;-82
2021/11/14 00:26:18;;;;;;;16.83;12.13;;;;;;;5.82;83.18;99677.97;5083083;28;20221;-81
2021/11/14 00:28:46;;;;;;;17.27;12.07;;;;;;;5.78;82.78;99667.91;5066690;28;20225;-81
2021/11/14 00:31:16;;;;;;;16.03;11.77;;;;;;;5.71;82.99;99657.19;5085605;28;20266;-82
2021/11/14 00:33:45;;;;;;;15.63;11.67;;;;;;;5.80;83.19;99685.28;5085293;28;20221;-85
2021/11/14 00:36:13;;;;;;;16.40;11.87;;;;;;;5.74;83.35;99681.53;5082602;28;20288;-81
2021/11/14 00:38:40;;;;;;;14.93;11.83;;;;;;;5.72;83.30;99672.13;5084234;28;20288;-82
2021/11/14 00:41:07;;;;;;;16.03;11.83;;;;;;;5.76;83.62;99682.19;5084153;28;20225;-82
2021/11/14 00:43:37;;;;;;;15.17;11.57;;;;;;;5.82;82.93;99693.91;5083965;28;20232;-81
2021/11/14 00:46:06;;;;;;;15.83;11.43;;;;;;;5.83;82.95;99692.09;5068620;28;20228;-81
2021/11/14 00:48:33;;;;;;;15.53;11.50;;;;;;;5.73;83.78;99687.06;5069157;28;20224;-82
2021/11/14 00:51:03;;;;;;;17.47;12.67;;;;;;;5.73;83.49;99681.75;5084776;28;20244;-81
2021/11/14 00:53:30;;;;;;;16.93;12.30;;;;;;;5.78;83.48;99697.97;5069354;28;20247;-81
2021/11/14 00:55:58;;;;;;;18.43;13.27;;;;;;;5.74;84.04;99689.50;5065527;28;20233;-82
2021/11/14 00:58:30;;;;;;;17.13;12.60;;;;;;;5.64;83.37;99675.72;5085572;28;20246;-81
2021/11/14 01:01:01;;;;;;;17.33;12.60;;;;;;;5.77;84.13;99696.31;5065579;28;20255;-81
2021/11/14 01:03:28;;;;;;;18.13;12.43;;;;;;;5.71;83.73;99691.72;5058678;28;20224;-81
2021/11/14 01:05:57;;;;;;;16.87;12.50;;;;;;;5.67;84.01;99688.63;5081596;28;20620;-81
2021/11/14 01:08:24;;;;;;;17.87;13.17;;;;;;;5.68;84.21;99695.59;5079614;28;20226;-81
2021/11/14 01:10:52;;;;;;;17.77;13.20;;;;;;;5.71;83.32;99699.72;5063692;28;20612;-81
2021/11/14 01:13:19;;;;;;;19.77;12.90;;;;;;;5.70;84.32;99706.84;5064579;28;20224;-82
2021/11/14 01:15:48;;;;;;;17.90;12.53;;;;;;;5.64;84.17;99698.81;5062917;28;20255;-81
2021/11/14 01:18:17;;;;;;;19.77;13.60;;;;;;;5.67;84.52;99706.41;5064351;28;20216;-82
2021/11/14 01:20:47;;;;;;;18.83;13.53;;;;;;;5.64;84.94;99704.13;5080032;28;20540;-81
2021/11/14 01:23:16;;;;;;;18.00;14.10;;;;;;;5.68;84.54;99713.38;5066619;28;20311;-81
2021/11/14 01:25:44;;;;;;;19.13;14.37;;;;;;;5.63;83.78;99705.97;5067342;28;20232;-82
2021/11/14 01:28:13;;;;;;;21.23;14.30;;;;;;;5.67;84.74;99707.25;5083789;28;20237;-82
2021/11/14 01:30:43;;;;;;;20.73;14.70;;;;;;;5.60;84.04;99701.00;5081802;28;20244;-81
2021/11/14 01:33:11;;;;;;;21.30;14.60;;;;;;;5.67;83.75;99712.56;5065906;28;20616;-81
2021/11/14 01:35:38;;;;;;;19.57;14.30;;;;;;;5.64;83.83;99701.47;5082783;28;20252;-81
2021/11/14 01:38:07;;;;;;;19.37;13.87;;;;;;;5.62;83.93;99700.81;5065873;28;20501;-82
2021/11/14 01:40:49;;;;;;;19.53;14.33;;;;;;;5.65;84.07;99708.41;5067282;28;20220;-81
2021/11/14 01:43:23;;;;;;;18.17;13.83;;;;;;;5.67;84.29;99719.69;5081939;28;20209;-81
2021/11/14 01:45:50;;;;;;;17.73;13.43;;;;;;;5.65;84.17;99719.03;5083849;28;20225;-81
2021/11/14 01:48:17;;;;;;;19.80;13.57;;;;;;;5.75;83.62;99719.59;5083137;28;20278;-82
2021/11/14 01:50:44;;;;;;;17.07;13.33;;;;;;;5.71;83.27;99718.31;5076853;23;20235;-82
2021/11/14 01:53:11;;;;;;;19.37;13.90;;;;;;;5.66;83.40;99713.56;5068012;28;20324;-81
2021/11/14 01:55:43;;;;;;;19.53;13.53;;;;;;;5.65;84.28;99711.91;5066943;28;20233;-81
2021/11/14 01:58:16;;;;;;;16.87;12.60;;;;;;;5.62;82.98;99712.28;5083989;28;20220;-84
2021/11/14 02:01:13;;;;;;;19.60;13.07;;;;;;;5.59;83.56;99709.19;5068277;28;20608;-82
2021/11/14 02:03:46;;;;;;;17.33;12.93;;;;;;;5.59;84.02;99714.50;5069656;28;20248;-81
2021/11/14 02:06:15;;;;;;;17.90;12.73;;;;;;;5.56;83.59;99713.00;5067236;28;20229;-81
2021/11/14 02:08:43;;;;;;;16.37;11.97;;;;;;;5.56;83.60;99706.88;5068299;28;20247;-82
2021/11/14 02:11:14;;;;;;;19.30;12.87;;;;;;;5.41;83.26;99692.81;5083738;28;20236;-81
2021/11/14 02:13:44;;;;;;;18.43;12.60;;;;;;;5.43;83.68;99696.91;5085000;28;20284;-82
2021/11/14 02:16:19;;;;;;;17.97;11.97;;;;;;;5.38;83.59;99707.25;5084477;28;20229;-81
2021/11/14 02:18:48;;;;;;;16.43;11.67;;;;;;;5.42;83.18;99711.19;5069232;28;20220;-81
2021/11/14 02:21:15;;;;;;;16.83;12.03;;;;;;;5.57;84.10;99706.69;5074574;23;20292;-81
2021/11/14 02:23:45;;;;;;;19.00;12.50;;;;;;;5.55;83.85;99719.34;5069267;28;20225;-81
2021/11/14 02:26:13;;;;;;;16.03;11.93;;;;;;;5.53;84.14;99723.19;5084757;28;20248;-81
2021/11/14 02:28:42;;;;;;;18.40;12.37;;;;;;;5.48;83.61;99713.13;5084469;28;20208;-81
2021/11/14 02:31:10;;;;;;;16.10;11.90;;;;;;;5.38;83.70;99701.13;5084892;28;20224;-81
2021/11/14 02:33:40;;;;;;;15.53;11.37;;;;;;;5.57;83.73;99700.56;5084729;28;20229;-80
2021/11/14 02:36:11;;;;;;;17.30;11.40;;;;;;;5.48;83.07;99707.81;5080062;28;20635;-80
2021/11/14 02:38:39;;;;;;;16.33;11.80;;;;;;;5.48;82.92;99718.44;5081010;28;20522;-80
2021/11/14 02:41:06;;;;;;;16.23;11.40;;;;;;;5.47;83.00;99715.97;5079107;28;20221;-81
2021/11/14 02:43:36;;;;;;;16.33;11.70;;;;;;;5.43;82.76;99707.53;5047801;28;20235;-81
2021/11/14 02:46:04;;;;;;;15.60;11.40;;;;;;;5.43;83.30;99712.84;5064216;28;20229;-82
2021/11/14 02:48:32;;;;;;;17.20;11.23;;;;;;;5.40;83.60;99707.91;5078362;28;20259;-81
2021/11/14 02:51:01;;;;;;;15.93;11.60;;;;;;;5.53;83.49;99725.84;5062512;28;20220;-81
2021/11/14 02:53:29;;;;;;;15.50;11.20;;;;;;;5.44;83.33;99700.41;5079981;28;20709;-80
2021/11/14 02:55:56;;;;;;;15.03;10.97;;;;;;;5.51;83.42;99726.03;5065046;28;20224;-80
2021/11/14 02:58:25;;;;;;;15.47;11.27;;;;;;;5.48;83.33;99720.28;5080898;28;20224;-81
2021/11/14 03:01:22;;;;;;;16.60;11.00;;;;;;;5.51;83.95;99727.88;5084934;28;20205;-81
2021/11/14 03:03:52;;;;;;;14.63;11.17;;;;;;;5.37;83.22;99715.41;5097529;28;20282;-80
2021/11/14 03:06:20;;;;;;;14.03;11.07;;;;;;;5.42;83.40;99721.81;5084463;28;20315;-81
2021/11/14 03:08:48;;;;;;;13.93;10.73;;;;;;;5.47;82.49;99723.94;5081384;28;20290;-80
2021/11/14 03:11:16;;;;;;;13.20;10.90;;;;;;;5.49;82.57;99722.75;5079603;28;20227;-80
2021/11/14 03:13:44;;;;;;;13.53;10.50;;;;;;;5.35;83.02;99712.97;5063133;28;20302;-81
2021/11/14 03:16:15;;;;;;;15.87;11.27;;;;;;;5.40;83.37;99715.88;5062331;28;20248;-82
2021/11/14 03:18:43;;;;;;;16.03;11.43;;;;;;;5.30;83.68;99704.72;5080246;28;20557;-81
2021/11/14 03:21:10;;;;;;;14.67;10.80;;;;;;;5.45;83.99;99718.81;5078099;28;20234;-81
2021/11/14 03:23:38;;;;;;;14.27;10.53;;;;;;;5.38;83.63;99719.72;5082240;28;20228;-81
2021/11/14 03:26:08;;;;;;;15.33;11.03;;;;;;;5.47;83.40;99724.75;5099605;28;20251;-81
2021/11/14 03:28:35;;;;;;;13.27;10.50;;;;;;;5.43;83.56;99720.81;5083438;28;20285;-82
2021/11/14 03:31:02;;;;;;;13.27;10.30;;;;;;;5.46;83.75;99728.41;5066853;28;20231;-80
2021/11/14 03:33:29;;;;;;;13.90;11.10;;;;;;;5.48;83.50;99731.72;5084630;28;20228;-80
2021/11/14 03:36:05;;;;;;;12.93;10.20;;;;;;;5.49;83.58;99728.06;5087423;28;20227;-81
2021/11/14 03:38:48;;;;;;;14.07;10.73;;;;;;;5.51;83.44;99728.69;5086707;28;20229;-81
2021/11/14 03:41:21;;;;;;;13.23;10.13;;;;;;;5.47;83.54;99735.38;5070757;28;20235;-81
2021/11/14 03:43:49;;;;;;;13.47;9.97;;;;;;;5.51;83.86;99735.84;5085691;28;20244;-81
2021/11/14 03:46:17;;;;;;;12.10;9.87;;;;;;;5.54;83.55;99732.81;5068795;28;20237;-82
2021/11/14 03:48:47;;;;;;;13.93;10.63;;;;;;;5.46;83.11;99717.78;5069157;28;20221;-83
2021/11/14 03:51:16;;;;;;;12.43;9.43;;;;;;;5.53;83.34;99734.66;5086345;28;20712;-81
2021/11/14 03:53:43;;;;;;;13.37;9.97;;;;;;;5.53;83.24;99736.50;5093907;23;20220;-81
2021/11/14 03:56:10;;;;;;;12.83;10.53;;;;;;;5.56;83.04;99744.09;5069806;28;20228;-82
2021/11/14 03:58:38;;;;;;;12.50;10.00;;;;;;;5.51;83.25;99739.31;5068331;28;20244;-80
2021/11/14 04:01:09;;;;;;;13.93;10.33;;;;;;;5.44;83.38;99733.09;5084688;28;20232;-81
2021/11/14 04:03:37;;;;;;;12.70;9.93;;;;;;;5.50;83.27;99742.19;5084131;28;20232;-81
2021/11/14 04:06:06;;;;;;;13.33;10.50;;;;;;;5.38;83.23;99727.69;5085206;28;20232;-81
2021/11/14 04:08:34;;;;;;;12.77;9.93;;;;;;;5.49;83.40;99751.97;5068972;28;20520;-83
2021/11/14 04:11:05;;;;;;;14.27;10.77;;;;;;;5.53;83.05;99752.44;5068653;28;20311;-81
2021/11/14 04:13:34;;;;;;;14.40;10.67;;;;;;;5.47;83.55;99746.00;5086287;28;20224;-82
2021/11/14 04:16:04;;;;;;;14.20;10.33;;;;;;;5.50;83.30;99758.13;5083896;28;20235;-81
2021/11/14 04:18:31;;;;;;;12.50;10.20;;;;;;;5.42;83.34;99744.91;5068582;28;20244;-81
2021/11/14 04:20:59;;;;;;;13.40;10.10;;;;;;;5.50;83.70;99761.63;5083975;28;20259;-82
2021/11/14 04:23:26;;;;;;;12.73;10.30;;;;;;;5.49;83.66;99754.66;5082914;28;20255;-80
2021/11/14 04:25:53;;;;;;;14.10;10.80;;;;;;;5.47;83.27;99756.66;5066949;28;20639;-81
2021/11/14 04:28:20;;;;;;;13.27;10.67;;;;;;;5.49;83.23;99757.31;5067312;28;20220;-81
2021/11/14 04:30:49;;;;;;;13.00;9.67;;;;;;;5.54;83.59;99760.22;5069155;28;20308;-81
2021/11/14 04:33:20;;;;;;;15.07;10.47;;;;;;;5.56;83.46;99763.50;5083244;28;20225;-81
2021/11/14 04:35:48;;;;;;;13.37;10.23;;;;;;;5.54;83.17;99754.91;5066554;28;20252;-83
2021/11/14 04:38:14;;;;;;;13.37;10.67;;;;;;;5.50;83.42;99761.63;5067825;28;20245;-81
2021/11/14 04:40:42;;;;;;;12.77;10.03;;;;;;;5.52;83.05;99767.56;5086955;28;20244;-82
2021/11/14 04:43:12;;;;;;;12.83;10.67;;;;;;;5.53;82.56;99771.88;5051807;28;20290;-81
2021/11/14 04:45:39;;;;;;;12.73;10.47;;;;;;;5.50;82.96;99755.47;5083926;28;20316;-81
2021/11/14 04:48:06;;;;;;;13.30;10.50;;;;;;;5.56;82.71;99766.16;5084224;28;20228;-81
2021/11/14 04:50:34;;;;;;;14.83;11.07;;;;;;;5.57;82.39;99765.16;5084223;28;20233;-83
2021/11/14 04:53:03;;;;;;;13.90;10.60;;;;;;;5.58;82.36;99776.63;5084195;28;20247;-82
2021/11/14 04:55:32;;;;;;;13.97;10.60;;;;;;;5.59;82.58;99776.47;5078090;28;20714;-81
2021/11/14 04:57:59;;;;;;;13.87;10.70;;;;;;;5.44;82.19;99756.19;5078836;28;20233;-81
2021/11/14 05:00:31;;;;;;;13.97;11.17;;;;;;;5.54;82.41;99780.66;5080288;28;20229;-81
2021/11/14 05:02:58;;;;;;;13.80;10.63;;;;;;;5.52;82.48;99788.81;5078228;28;20225;-81
2021/11/14 05:05:24;;;;;;;13.00;10.47;;;;;;;5.53;82.51;99787.81;5079864;28;20225;-81
2021/11/14 05:07:51;;;;;;;14.70;10.83;;;;;;;5.52;82.24;99778.19;5072014;28;20221;-83
2021/11/14 05:10:18;;;;;;;13.47;10.57;;;;;;;5.55;81.69;99784.97;5063786;28;20229;-81
2021/11/14 05:12:45;;;;;;;13.97;10.40;;;;;;;5.53;82.31;99789.63;5079275;28;20295;-81
2021/11/14 05:15:12;;;;;;;14.37;10.93;;;;;;;5.54;81.73;99789.47;5079146;28;20225;-80
2021/11/14 05:17:39;;;;;;;13.53;10.70;;;;;;;5.52;82.37;99780.84;5079341;28;20226;-81
2021/11/14 05:20:09;;;;;;;14.13;11.63;;;;;;;5.57;82.53;99789.09;5061805;28;20262;-82
2021/11/14 05:22:36;;;;;;;13.90;10.90;;;;;;;5.57;81.92;99786.44;5081736;28;20209;-81
2021/11/14 05:25:06;;;;;;;12.80;10.57;;;;;;;5.56;81.93;99794.56;5078219;28;20228;-83
2021/11/14 05:27:33;;;;;;;14.07;11.30;;;;;;;5.61;81.78;99801.00;5081703;28;20225;-81
2021/11/14 05:30:00;;;;;;;14.03;11.23;;;;;;;5.57;82.15;99799.72;5083257;28;20221;-82
2021/11/14 05:32:29;;;;;;;14.07;11.30;;;;;;;5.54;82.52;99801.94;5065690;28;20230;-83
2021/11/14 05:34:57;;;;;;;13.93;11.00;;;;;;;5.53;82.51;99794.97;5065374;28;20233;-81
2021/11/14 05:37:24;;;;;;;15.43;11.67;;;;;;;5.52;81.65;99798.63;5081223;28;20257;-82
2021/11/14 05:39:51;;;;;;;14.37;11.60;;;;;;;5.51;81.96;99804.94;5102972;23;20227;-81
2021/11/14 05:42:18;;;;;;;13.30;10.47;;;;;;;5.53;82.25;99811.72;5086177;28;20232;-81
2021/11/14 05:44:45;;;;;;;13.57;11.50;;;;;;;5.47;82.15;99808.97;5104348;28;20226;-81
2021/11/14 05:47:12;;;;;;;14.20;11.67;;;;;;;5.45;82.52;99805.69;5104375;28;20242;-81
2021/11/14 05:49:39;;;;;;;13.50;11.30;;;;;;;5.48;82.61;99814.09;5103308;28;20263;-81
2021/11/14 05:52:06;;;;;;;14.83;11.43;;;;;;;5.45;82.46;99806.50;5103262;28;20235;-81
2021/11/14 05:54:33;;;;;;;15.40;11.83;;;;;;;5.50;82.25;99829.88;5102724;28;20220;-82
2021/11/14 05:57:01;;;;;;;13.57;11.30;;;;;;;5.50;82.22;99828.06;5085274;28;20231;-81
2021/11/14 05:59:53;;;;;;;15.27;11.70;;;;;;;5.54;82.75;99826.69;5067615;28;20212;-81
2021/11/14 06:02:34;;;;;;;13.63;10.80;;;;;;;5.54;82.75;99834.66;5102637;28;20535;-80
2021/11/14 06:07:30;;;;;;;13.27;11.07;;;;;;;5.43;82.35;99834.25;5104369;28;20226;-82
2021/11/14 06:09:57;;;;;;;14.47;10.67;;;;;;;5.56;82.50;99845.91;5103424;28;20250;-81
2021/11/14 06:12:24;;;;;;;13.27;10.80;;;;;;;5.57;82.41;99855.53;5070416;28;20556;-81
2021/11/14 06:14:51;;;;;;;14.23;10.93;;;;;;;5.52;82.25;99849.94;5104296;28;20250;-82
2021/11/14 06:17:20;;;;;;;14.67;11.03;;;;;;;5.61;81.84;99856.00;5101712;28;20224;-82
2021/11/14 06:19:48;;;;;;;16.20;11.60;;;;;;;5.52;81.67;99857.91;5102028;28;20249;-81
2021/11/14 06:22:16;;;;;;;13.80;11.27;;;;;;;5.57;81.62;99860.03;5082136;28;20295;-80
2021/11/14 06:24:44;;;;;;;14.67;11.77;;;;;;;5.52;81.93;99863.22;5065502;28;20273;-81
2021/11/14 06:27:12;;;;;;;15.43;11.83;;;;;;;5.50;81.79;99870.56;5069923;28;20235;-81
2021/11/14 06:29:39;;;;;;;15.00;11.13;;;;;;;5.58;81.85;99877.63;5105218;28;20208;-81
2021/11/14 06:32:09;;;;;;;14.13;10.90;;;;;;;5.61;82.37;99885.22;5086544;28;20251;-81
2021/11/14 06:34:36;;;;;;;14.10;10.90;;;;;;;5.57;82.18;99882.13;5087486;28;20244;-81
2021/11/14 06:37:04;;;;;;;15.70;12.17;;;;;;;5.55;81.96;99881.47;5100992;28;20307;-81
2021/11/14 06:39:31;;;;;;;15.43;11.97;;;;;;;5.59;81.88;99888.09;5066122;28;20242;-81
2021/11/14 06:41:58;;;;;;;14.27;11.30;;;;;;;5.69;82.74;99901.13;5085588;28;20227;-81
2021/11/14 06:44:25;;;;;;;16.80;11.63;;;;;;;5.68;82.26;99894.16;5070380;28;20242;-82
2021/11/14 06:46:55;;;;;;;16.77;11.80;;;;;;;5.71;81.94;99888.44;5106494;28;20180;-81
2021/11/14 06:49:23;;;;;;;16.70;11.43;;;;;;;5.86;82.33;99905.25;5088079;28;20312;-82
2021/11/14 06:51:50;;;;;;;15.27;11.47;;;;;;;5.87;81.83;99895.47;5104413;28;20220;-81
2021/11/14 06:54:19;;;;;;;16.30;11.77;;;;;;;5.94;81.53;99907.84;5103042;28;20227;-82
2021/11/14 06:56:46;;;;;;;15.27;11.97;;;;;;;5.87;82.19;99892.81;5102990;28;20298;-82
2021/11/14 06:59:13;;;;;;;15.23;12.00;;;;;;;6.01;81.38;99918.59;5103900;28;20231;-81
2021/11/14 07:01:40;;;;;;;17.93;12.13;;;;;;;5.95;80.92;99904.19;5086780;28;20288;-81
2021/11/14 07:04:08;;;;;;;17.23;12.67;;;;;;;6.08;81.36;99915.00;5102537;28;20220;-82
2021/11/14 07:06:36;;;;;;;15.70;12.10;;;;;;;6.18;81.11;99915.56;5068810;28;20226;-81
2021/11/14 07:09:04;;;;;;;17.47;13.20;;;;;;;6.19;80.41;99913.72;5102818;28;20231;-81
2021/11/14 07:11:31;;;;;;;18.03;12.43;;;;;;;6.31;80.48;99922.88;5087087;28;20234;-82
2021/11/14 07:14:00;;;;;;;14.60;11.83;;;;;;;6.36;79.84;99915.16;5106483;28;20273;-81
2021/11/14 07:16:28;;;;;;;16.70;11.63;;;;;;;6.39;80.09;99912.13;5105088;28;20307;-81
2021/11/14 07:18:57;;;;;;;15.40;11.80;;;;;;;6.40;80.13;99915.63;5087759;28;20242;-82
2021/11/14 07:21:24;;;;;;;17.37;12.20;;;;;;;6.46;80.18;99921.03;5104492;28;20722;-81
2021/11/14 07:23:52;;;;;;;16.23;12.23;;;;;;;6.53;79.74;99929.13;5071159;28;20519;-82
2021/11/14 07:26:20;;;;;;;14.27;10.93;;;;;;;6.53;79.79;99929.91;5104079;28;20224;-82
2021/11/14 07:28:47;;;;;;;16.07;12.20;;;;;;;6.44;78.69;99925.69;5070690;28;20227;-84
2021/11/14 07:31:14;;;;;;;15.13;11.67;;;;;;;6.50;79.12;99935.63;5104835;28;20215;-83
2021/11/14 07:33:43;;;;;;;16.60;12.53;;;;;;;6.54;79.28;99931.56;5102970;28;20223;-82
2021/11/14 07:36:10;;;;;;;15.80;12.07;;;;;;;6.57;78.93;99923.22;5087752;28;20608;-82
2021/11/14 07:38:38;;;;;;;15.27;11.53;;;;;;;6.67;78.47;99924.78;5103830;28;20228;-82
2021/11/14 07:41:06;;;;;;;14.93;11.67;;;;;;;6.75;78.09;99940.63;5085879;28;20223;-82
2021/11/14 07:43:33;;;;;;;13.50;10.80;;;;;;;6.67;77.82;99930.09;5085908;28;20227;-81
2021/11/14 07:46:02;;;;;;;16.30;11.57;;;;;;;6.68;78.36;99921.91;5098105;28;20213;-82
2021/11/14 07:48:29;;;;;;;14.70;11.17;;;;;;;6.81;78.58;99930.03;5088773;28;20215;-82
2021/11/14 07:50:57;;;;;;;14.83;10.97;;;;;;;6.83;78.05;99922.69;5083977;28;20303;-82
2021/11/14 07:53:25;;;;;;;15.87;10.97;;;;;;;6.96;77.78;99927.31;5065963;28;20238;-81
2021/11/14 07:55:52;;;;;;;12.80;10.33;;;;;;;7.10;76.93;99937.09;5094256;28;20219;-82
2021/11/14 07:58:20;;;;;;;12.93;10.67;;;;;;;7.05;76.68;99929.69;5083878;28;20243;-82
2021/11/14 08:00:47;;;;;;;13.80;10.70;;;;;;;7.12;77.13;99948.41;5073707;28;20300;-82
2021/11/14 08:03:15;;;;;;;14.20;10.67;;;;;;;7.18;76.60;99936.19;5065867;28;20228;-83
2021/11/14 08:05:42;;;;;;;13.67;10.27;;;;;;;7.20;76.90;99948.28;5048999;28;20227;-82
2021/11/14 08:08:09;;;;;;;13.63;11.00;;;;;;;7.20;76.48;99950.13;5064064;28;20240;-82
2021/11/14 08:10:37;;;;;;;14.57;11.37;;;;;;;7.13;76.12;99939.41;5051738;28;20225;-82
2021/11/14 08:13:06;;;;;;;13.87;10.57;;;;;;;7.15;76.18;99949.84;5069199;28;20239;-81
2021/11/14 08:15:35;;;;;;;15.80;11.07;;;;;;;7.19;76.06;99954.63;5086380;28;20232;-81
2021/11/14 08:18:03;;;;;;;14.90;10.37;;;;;;;7.12;75.50;99948.41;5067539;28;20240;-80
2021/11/14 08:20:35;;;;;;;13.73;10.43;;;;;;;7.23;75.98;99961.22;5069163;28;20221;-82
2021/11/14 08:23:04;;;;;;;13.43;10.90;;;;;;;7.29;75.65;99963.13;5087342;28;20233;-82
2021/11/14 08:25:34;;;;;;;14.73;10.87;;;;;;;7.30;75.72;99948.78;5069315;28;20259;-83
2021/11/14 08:28:01;;;;;;;13.60;10.13;;;;;;;7.39;75.69;99955.66;5053566;28;20254;-82
2021/11/14 08:30:30;;;;;;;13.63;10.63;;;;;;;7.43;75.27;99961.41;5060874;23;20231;-81
2021/11/14 08:32:59;;;;;;;12.80;9.77;;;;;;;7.40;74.90;99956.47;5106073;28;20310;-82
2021/11/14 08:35:26;;;;;;;14.27;10.40;;;;;;;7.40;74.69;99962.63;5072925;28;20235;-84
2021/11/14 08:38:00;;;;;;;14.97;10.53;;;;;;;7.44;74.92;99958.56;5089460;28;20258;-82
2021/11/14 08:40:32;;;;;;;12.60;10.53;;;;;;;7.45;75.40;99962.06;5090975;28;20232;-83
2021/11/14 08:43:00;;;;;;;14.27;10.90;;;;;;;7.44;75.32;99955.06;5072493;28;20223;-83
2021/11/14 08:45:28;;;;;;;14.17;10.70;;;;;;;7.52;75.15;99968.25;5087963;28;20243;-82
2021/11/14 08:47:56;;;;;;;16.90;11.70;;;;;;;7.44;74.89;99968.41;5088803;28;20694;-81
2021/11/14 08:50:25;;;;;;;13.23;10.80;;;;;;;7.32;75.11;99969.94;5088875;28;20251;-82
2021/11/14 08:52:53;;;;;;;13.07;10.13;;;;;;;7.30;75.32;99966.63;5088769;28;20224;-82
2021/11/14 08:55:24;;;;;;;12.20;10.23;;;;;;;7.26;74.99;99954.69;5110137;22;20233;-83
2021/11/14 08:57:51;;;;;;;15.50;11.00;;;;;;;7.38;75.36;99977.97;5084516;28;20233;-82
2021/11/14 09:00:23;;;;;;;13.60;10.53;;;;;;;7.42;75.75;99984.56;5091145;23;20231;-82
2021/11/14 09:02:51;;;;;;;15.17;11.03;;;;;;;7.41;75.16;99980.28;5068012;28;20234;-81
2021/11/14 09:05:21;;;;;;;14.20;10.90;;;;;;;7.42;74.94;99981.09;5067328;28;20263;-83
2021/11/14 09:07:50;;;;;;;14.43;10.87;;;;;;;7.56;74.12;99992.72;5085407;28;20232;-82
2021/11/14 09:10:20;;;;;;;15.33;11.17;;;;;;;7.51;75.10;99980.75;5084238;28;20255;-82
2021/11/14 09:12:48;;;;;;;16.63;11.83;;;;;;;7.56;74.76;99982.84;5083366;28;20221;-81
2021/11/14 09:15:22;;;;;;;14.47;11.57;;;;;;;7.62;74.22;99982.09;5083353;28;20252;-83
2021/11/14 09:18:09;;;;;;;15.60;11.20;;;;;;;7.61;74.01;99990.28;5075519;28;20275;-83
2021/11/14 09:20:36;;;;;;;15.90;11.57;;;;;;;7.62;74.14;99986.59;5079404;28;20229;-83
2021/11/14 09:23:03;;;;;;;15.03;10.77;;;;;;;7.74;74.31;99987.75;5085493;28;20299;-81
2021/11/14 09:25:31;;;;;;;15.93;11.80;;;;;;;7.70;74.06;99984.63;5079784;28;20225;-82
2021/11/14 09:27:58;;;;;;;16.33;11.40;;;;;;;7.58;74.14;99980.00;5078616;23;20259;-82
2021/11/14 09:30:27;;;;;;;16.43;12.70;;;;;;;7.71;72.38;99980.13;5088031;28;20230;-81
2021/11/14 09:32:54;;;;;;;17.97;11.73;;;;;;;7.60;73.12;99983.31;5071084;28;20236;-83
2021/11/14 09:35:21;;;;;;;18.50;13.50;;;;;;;7.56;73.64;99972.19;5070130;28;20360;-84
2021/11/14 09:37:47;;;;;;;17.37;12.80;;;;;;;7.49;73.78;99980.16;5082376;28;20233;-83
2021/11/14 09:40:14;;;;;;;18.90;13.13;;;;;;;7.55;72.96;99975.91;5081853;28;20299;-82
2021/11/14 09:42:41;;;;;;;17.67;13.00;;;;;;;7.48;72.96;99975.81;5084869;28;20231;-81
2021/11/14 09:45:10;;;;;;;18.67;13.07;;;;;;;7.58;73.90;99986.16;5083463;28;20225;-82
2021/11/14 09:47:39;;;;;;;19.20;13.30;;;;;;;7.49;74.35;99979.31;5084623;28;20383;-82
2021/11/14 09:50:07;;;;;;;19.23;13.43;;;;;;;7.67;74.15;99982.34;5078673;23;20650;-83
2021/11/14 09:52:36;;;;;;;18.83;13.13;;;;;;;7.67;74.17;99982.34;5068565;28;20222;-83
2021/11/14 09:55:06;;;;;;;19.60;13.83;;;;;;;7.65;73.83;99981.69;5082444;28;20223;-83
2021/11/14 09:57:38;;;;;;;18.07;11.93;;;;;;;7.71;74.02;99982.78;5048097;28;20662;-82
2021/11/14 10:00:07;;;;;;;19.50;13.53;;;;;;;7.73;74.36;99975.44;5047806;28;20268;-82
2021/11/14 10:02:40;;;;;;;18.67;12.70;;;;;;;7.81;73.75;99977.94;5064335;28;20249;-82
2021/11/14 10:05:09;;;;;;;17.73;13.30;;;;;;;7.97;72.78;99977.69;5063720;28;20316;-82
2021/11/14 10:07:41;;;;;;;18.07;12.77;;;;;;;8.09;72.04;99984.09;5047822;28;20232;-83
2021/11/14 10:10:10;;;;;;;20.37;13.67;;;;;;;8.26;71.91;99987.28;5031142;28;20229;-81
2021/11/14 10:12:55;;;;;;;18.20;12.77;;;;;;;8.40;71.18;99979.19;5065819;28;20289;-82
2021/11/14 10:15:26;;;;;;;18.33;13.27;;;;;;;8.50;69.24;99968.16;5064616;28;20316;-82
2021/11/14 10:17:55;;;;;;;17.97;12.47;;;;;;;8.55;68.43;99973.72;5047913;28;20731;-83
2021/11/14 10:20:32;;;;;;;22.40;16.50;;;;;;;8.62;68.05;99963.09;5074135;23;20539;-82
2021/11/14 10:23:09;;;;;;;20.53;14.00;;;;;;;8.64;68.70;99967.19;5064754;28;20667;-83
2021/11/14 10:25:36;;;;;;;20.27;14.20;;;;;;;8.74;68.38;99966.84;5057334;28;20614;-81
2021/11/14 10:28:04;;;;;;;19.23;14.30;;;;;;;8.91;67.91;99968.16;5045917;28;20309;-83
2021/11/14 10:30:35;;;;;;;22.70;15.93;;;;;;;8.93;68.08;99965.25;5082452;28;20232;-83
2021/11/14 10:33:05;;;;;;;17.83;13.30;;;;;;;8.80;68.30;99966.03;5065138;28;20232;-79
2021/11/14 10:35:36;;;;;;;24.13;16.93;;;;;;;8.76;68.57;99962.13;5037078;28;20282;-79
2021/11/14 10:38:07;;;;;;;19.57;13.93;;;;;;;8.77;68.72;99969.13;5061791;28;20225;-81
2021/11/14 10:40:38;;;;;;;21.13;14.10;;;;;;;8.78;68.78;99960.88;5062714;28;20654;-81
2021/11/14 10:43:06;;;;;;;18.10;14.67;;;;;;;8.81;69.08;99970.38;5069406;28;20232;-80
2021/11/14 10:45:39;;;;;;;19.83;14.60;;;;;;;8.83;68.89;99970.97;5050047;28;20225;-83
2021/11/14 10:48:15;;;;;;;21.63;13.77;;;;;;;8.78;69.12;99957.38;5084521;28;20232;-79
2021/11/14 10:50:48;;;;;;;22.87;14.13;;;;;;;8.94;69.18;99975.75;5085123;28;20232;-81
2021/11/14 10:53:21;;;;;;;18.17;13.33;;;;;;;8.92;68.56;99968.94;5068490;28;20238;-80
2021/11/14 10:55:57;;;;;;;20.50;14.53;;;;;;;8.84;69.30;99957.44;5085486;28;20228;-80
2021/11/14 10:58:27;;;;;;;19.57;14.27;;;;;;;9.07;68.86;99978.47;5049689;28;20294;-80
2021/11/14 11:00:58;;;;;;;18.63;13.77;;;;;;;9.00;68.83;99971.47;5050112;28;20235;-80
2021/11/14 11:03:33;;;;;;;19.77;13.23;;;;;;;9.05;68.55;99983.16;5049313;28;20311;-80
2021/11/14 11:06:05;;;;;;;18.17;12.77;;;;;;;8.76;69.11;99972.81;5057619;28;20623;-79
2021/11/14 11:08:35;;;;;;;15.90;12.27;;;;;;;8.64;69.83;99974.38;5046835;28;20196;-79
2021/11/14 11:11:24;;;;;;;16.93;12.17;;;;;;;8.39;69.95;99971.41;5048277;28;20225;-80
2021/11/14 11:13:52;;;;;;;18.13;11.83;;;;;;;8.21;71.57;99977.19;5045732;28;20237;-79
2021/11/14 11:16:31;;;;;;;17.37;11.23;;;;;;;8.00;71.71;99971.09;5055681;28;20229;-81
2021/11/14 11:19:23;;;;;;;15.20;11.03;;;;;;;8.00;71.74;99971.94;5066187;28;20228;-80
2021/11/14 11:21:51;;;;;;;15.47;11.07;;;;;;;7.98;72.26;99974.78;5050189;28;20236;-81
2021/11/14 11:24:25;;;;;;;15.07;10.73;;;;;;;7.99;72.11;99975.63;5066939;28;20694;-80
2021/11/14 11:27:05;;;;;;;15.90;11.13;;;;;;;7.94;71.83;99967.38;5083337;28;20257;-83
2021/11/14 11:29:34;;;;;;;15.23;10.77;;;;;;;7.88;72.53;99969.00;5079944;28;20231;-81
2021/11/14 11:32:01;;;;;;;16.93;12.10;;;;;;;7.83;72.66;99958.06;5041585;28;20579;-81
2021/11/14 11:34:29;;;;;;;17.50;12.03;;;;;;;7.93;73.23;99971.88;5045193;28;20228;-80
2021/11/14 11:36:57;;;;;;;17.10;12.07;;;;;;;7.95;73.45;99982.38;5062106;28;20278;-82